Time,TemperatureF,DewpointF,PressureIn,WindDirection,WindDirectionDegrees,WindSpeedMPH,WindSpeedGustMPH,Humidity,HourlyPrecipIn,Conditions,Clouds,dailyrainin,SolarRadiationWatts/m^2,SoftwareType,DateUTC
2013-02-25 00:00:00,48.1,44.1,30.22,WSW,249,5.0,10.0,86,0.00,OVC,,0.00,0.0,WeatherDisplay:10.37,2013-02-25 08:00:00,
2013-02-25 00:05:00,48.2,44.5,30.22,SW,217,1.1,5.8,87,0.00,OVC,,0.00,0.0,WeatherDisplay:10.37,2013-02-25 08:05:00,
2013-02-25 00:10:00,48.1,44.4,30.23,South,185,4.2,5.0,87,0.00,OVC,,0.00,0.0,WeatherDisplay:10.37,2013-02-25 08:10:00,
2013-02-25 00:15:00,48.1,44.4,30.23,South,191,2.0,5.0,87,0.00,OVC,,0.00,0.0,WeatherDisplay:10.37,2013-02-25 08:15:00,
2013-02-25 00:20:00,48.1,44.1,30.23,SSW,196,0.0,6.0,86,0.00,OVC,,0.00,0.0,WeatherDisplay:10.37,2013-02-25 08:20:00,
2013-02-25 00:25:00,48.1,44.1,30.24,SSW,200,0.0,2.3,86,0.00,OVC,,0.00,0.0,WeatherDisplay:10.37,2013-02-25 08:25:00,
2013-02-25 00:30:00,48.1,44.4,30.24,SW,236,0.8,6.9,87,0.00,OVC,,0.00,0.0,WeatherDisplay:10.37,2013-02-25 08:30:00,
2013-02-25 00:35:00,48.0,44.3,30.24,SW,232,5.0,7.0,87,0.00,OVC,,0.00,0.0,WeatherDisplay:10.37,2013-02-25 08:35:00,
2013-02-25 00:40:00,48.0,44.3,30.24,SW,215,2.4,3.5,87,0.00,OVC,,0.00,0.0,WeatherDisplay:10.37,2013-02-25 08:40:00,
2013-02-25 00:45:00,48.0,44.3,30.24,SW,229,3.0,8.0,87,0.00,OVC,,0.00,0.0,WeatherDisplay:10.37,2013-02-25 08:45:00,
2013-02-25 00:50:00,48.0,44.3,30.24,WSW,241,5.0,9.0,87,0.00,OVC,,0.00,0.0,WeatherDisplay:10.37,2013-02-25 08:50:00,
2013-02-25 00:55:00,48.0,44.3,30.24,WSW,248,0.9,3.5,87,0.00,OVC,,0.00,0.0,WeatherDisplay:10.37,2013-02-25 08:55:00,
2013-02-25 01:00:00,48.0,44.3,30.24,WSW,248,2.0,5.0,87,0.00,OVC,,0.00,0.0,WeatherDisplay:10.37,2013-02-25 09:00:00,
2013-02-25 01:05:00,48.0,44.3,30.24,SW,234,4.1,5.8,87,0.00,OVC,,0.00,0.0,WeatherDisplay:10.37,2013-02-25 09:05:00,
2013-02-25 01:10:00,48.0,44.3,30.24,WSW,239,2.2,4.6,87,0.00,OVC,,0.00,0.0,WeatherDisplay:10.37,2013-02-25 09:10:00,
2013-02-25 01:15:00,48.0,44.3,30.24,WSW,239,2.0,9.0,87,0.00,OVC,,0.00,0.0,WeatherDisplay:10.37,2013-02-25 09:15:00,
2013-02-25 01:20:00,48.0,44.3,30.24,SW,236,5.4,10.4,87,0.00,OVC,,0.00,0.0,WeatherDisplay:10.37,2013-02-25 09:20:00,
2013-02-25 01:25:00,48.0,44.3,30.25,SW,235,1.0,7.0,87,0.00,OVC,,0.00,0.0,WeatherDisplay:10.37,2013-02-25 09:25:00,
2013-02-25 01:30:00,47.9,44.2,30.24,SW,231,2.7,3.5,87,0.00,OVC,,0.00,0.0,WeatherDisplay:10.37,2013-02-25 09:30:00,
2013-02-25 01:35:00,47.9,44.2,30.24,SSW,198,0.0,0.0,87,0.00,OVC,,0.00,0.0,WeatherDisplay:10.37,2013-02-25 09:35:00,
2013-02-25 01:40:00,47.8,44.1,30.24,SW,217,1.1,3.5,87,0.00,OVC,,0.00,0.0,WeatherDisplay:10.37,2013-02-25 09:40:00,
2013-02-25 01:45:00,47.8,44.1,30.24,SW,217,1.0,4.0,87,0.00,OVC,,0.00,0.0,WeatherDisplay:10.37,2013-02-25 09:45:00,
2013-02-25 01:50:00,47.7,44.0,30.24,SW,228,1.9,4.6,87,0.00,OVC,,0.00,0.0,WeatherDisplay:10.37,2013-02-25 09:50:00,
2013-02-25 01:55:00,47.8,44.4,30.24,SW,215,3.0,9.0,88,0.00,OVC,,0.00,0.0,WeatherDisplay:10.37,2013-02-25 09:55:00,
2013-02-25 02:00:00,47.8,44.4,30.24,SSW,211,3.0,7.0,88,0.00,OVC,,0.00,0.0,WeatherDisplay:10.37,2013-02-25 10:00:00,
2013-02-25 02:05:00,47.8,44.4,30.24,SW,226,3.0,8.0,88,0.00,OVC,,0.00,0.0,WeatherDisplay:10.37,2013-02-25 10:05:00,
2013-02-25 02:10:00,47.8,44.4,30.24,SW,234,0.0,7.0,88,0.00,OVC,,0.00,0.0,WeatherDisplay:10.37,2013-02-25 10:10:00,
2013-02-25 02:15:00,47.8,44.4,30.24,SW,216,3.1,3.5,88,0.00,OVC,,0.00,0.0,WeatherDisplay:10.37,2013-02-25 10:15:00,
2013-02-25 02:20:00,47.7,44.3,30.24,SW,215,2.0,5.0,88,0.00,OVC,,0.00,0.0,WeatherDisplay:10.37,2013-02-25 10:20:00,
2013-02-25 02:25:00,47.7,44.3,30.23,SW,216,3.0,6.0,88,0.00,OVC,,0.00,0.0,WeatherDisplay:10.37,2013-02-25 10:25:00,
2013-02-25 02:30:00,47.6,44.2,30.24,SW,216,1.0,3.5,88,0.00,OVC,,0.00,0.0,WeatherDisplay:10.37,2013-02-25 10:30:00,
2013-02-25 02:35:00,47.5,44.1,30.23,SW,216,2.0,6.0,88,0.00,OVC,,0.00,0.0,WeatherDisplay:10.37,2013-02-25 10:35:00,
2013-02-25 02:40:00,47.4,44.0,30.23,SW,216,0.2,2.3,88,0.00,OVC,,0.00,0.0,WeatherDisplay:10.37,2013-02-25 10:40:00,
2013-02-25 02:45:00,47.3,43.9,30.23,SW,216,0.0,2.3,88,0.00,OVC,,0.00,0.0,WeatherDisplay:10.37,2013-02-25 10:45:00,
2013-02-25 02:50:00,47.3,43.9,30.23,SW,216,0.0,0.0,88,0.00,OVC,,0.00,0.0,WeatherDisplay:10.37,2013-02-25 10:50:00,
2013-02-25 02:55:00,47.2,43.8,30.23,SW,216,0.0,2.0,88,0.00,OVC,,0.00,0.0,WeatherDisplay:10.37,2013-02-25 10:55:00,
2013-02-25 03:00:00,47.0,43.9,30.23,SW,216,1.0,3.0,89,0.00,OVC,,0.00,0.0,WeatherDisplay:10.37,2013-02-25 11:00:00,
2013-02-25 03:05:00,47.0,43.9,30.23,SW,216,0.1,1.1,89,0.00,OVC,,0.00,0.0,WeatherDisplay:10.37,2013-02-25 11:05:00,
2013-02-25 03:10:00,46.9,43.8,30.23,SW,216,0.3,1.1,89,0.00,OVC,,0.00,0.0,WeatherDisplay:10.37,2013-02-25 11:10:00,
2013-02-25 03:15:00,46.9,43.8,30.23,SW,216,0.0,1.0,89,0.00,OVC,,0.00,0.0,WeatherDisplay:10.37,2013-02-25 11:15:00,
2013-02-25 03:20:00,46.8,43.7,30.23,SW,216,0.0,0.0,89,0.00,OVC,,0.00,0.0,WeatherDisplay:10.37,2013-02-25 11:20:00,
2013-02-25 03:25:00,46.7,43.6,30.23,SW,216,0.0,0.0,89,0.00,OVC,,0.00,0.0,WeatherDisplay:10.37,2013-02-25 11:25:00,
2013-02-25 03:30:00,46.6,43.5,30.23,SW,216,0.0,0.0,89,0.00,OVC,,0.00,0.0,WeatherDisplay:10.37,2013-02-25 11:30:00,
2013-02-25 03:35:00,46.5,43.4,30.24,SW,216,0.0,0.0,89,0.00,OVC,,0.00,0.0,WeatherDisplay:10.37,2013-02-25 11:35:00,
2013-02-25 03:40:00,46.3,43.2,30.24,SW,216,0.0,0.0,89,0.00,OVC,,0.00,0.0,WeatherDisplay:10.37,2013-02-25 11:40:00,
2013-02-25 03:45:00,46.1,43.0,30.23,SW,216,0.0,1.1,89,0.00,OVC,,0.00,0.0,WeatherDisplay:10.37,2013-02-25 11:45:00,
2013-02-25 03:50:00,46.0,42.9,30.23,SW,216,0.0,0.0,89,0.00,OVC,,0.00,0.0,WeatherDisplay:10.37,2013-02-25 11:50:00,
2013-02-25 03:55:00,45.8,42.7,30.23,SW,216,0.0,0.0,89,0.00,OVC,,0.00,0.0,WeatherDisplay:10.37,2013-02-25 11:55:00,
2013-02-25 04:00:00,45.7,42.6,30.23,SW,216,0.0,0.0,89,0.00,OVC,,0.00,0.0,WeatherDisplay:10.37,2013-02-25 12:00:00,
2013-02-25 04:05:00,45.5,42.4,30.23,SW,216,0.0,0.0,89,0.00,OVC,,0.00,0.0,WeatherDisplay:10.37,2013-02-25 12:05:00,
2013-02-25 04:10:00,45.4,42.6,30.23,SW,216,0.0,0.0,90,0.00,OVC,,0.00,0.0,WeatherDisplay:10.37,2013-02-25 12:10:00,
2013-02-25 04:15:00,45.5,42.7,30.23,SW,216,1.0,2.0,90,0.00,OVC,,0.00,0.0,WeatherDisplay:10.37,2013-02-25 12:15:00,
2013-02-25 04:20:00,45.5,42.7,30.23,SW,216,2.0,3.5,90,0.00,OVC,,0.00,0.0,WeatherDisplay:10.37,2013-02-25 12:20:00,
2013-02-25 04:25:00,45.5,42.7,30.22,SW,216,0.0,2.0,90,0.00,OVC,,0.00,0.0,WeatherDisplay:10.37,2013-02-25 12:25:00,
2013-02-25 04:30:00,45.4,42.6,30.22,SW,216,0.0,0.0,90,0.00,OVC,,0.00,0.0,WeatherDisplay:10.37,2013-02-25 12:30:00,
2013-02-25 04:35:00,45.3,42.6,30.23,SW,216,0.0,0.0,90,0.00,OVC,,0.00,0.0,WeatherDisplay:10.37,2013-02-25 12:35:00,
2013-02-25 04:40:00,45.2,42.4,30.23,SW,216,0.0,0.0,90,0.00,OVC,,0.00,0.0,WeatherDisplay:10.37,2013-02-25 12:40:00,
2013-02-25 04:45:00,45.2,42.4,30.23,SW,216,0.0,0.0,90,0.00,OVC,,0.00,0.0,WeatherDisplay:10.37,2013-02-25 12:45:00,
2013-02-25 04:50:00,45.1,42.3,30.23,SW,216,0.0,1.0,90,0.00,OVC,,0.00,0.0,WeatherDisplay:10.37,2013-02-25 12:50:00,
2013-02-25 04:55:00,45.0,42.2,30.23,SW,216,0.9,2.3,90,0.00,OVC,,0.00,0.0,WeatherDisplay:10.37,2013-02-25 12:55:00,
2013-02-25 05:01:00,45.0,42.2,30.23,SW,216,0.9,2.3,90,0.00,OVC,,0.00,0.0,WeatherDisplay:10.37,2013-02-25 13:01:00,
2013-02-25 05:06:00,45.1,42.6,30.23,SW,216,0.1,1.1,91,0.00,OVC,,0.00,0.0,WeatherDisplay:10.37,2013-02-25 13:06:00,
2013-02-25 05:11:00,45.1,42.6,30.23,SW,216,0.1,1.1,91,0.00,OVC,,0.00,0.0,WeatherDisplay:10.37,2013-02-25 13:11:00,
2013-02-25 05:16:00,45.1,42.6,30.23,SW,216,2.9,3.5,91,0.00,OVC,,0.00,0.0,WeatherDisplay:10.37,2013-02-25 13:16:00,
2013-02-25 05:21:00,45.1,42.6,30.23,SW,216,0.0,1.1,91,0.00,OVC,,0.00,0.0,WeatherDisplay:10.37,2013-02-25 13:21:00,
2013-02-25 05:26:00,45.1,42.3,30.23,SW,215,0.4,3.5,90,0.00,OVC,,0.00,0.0,WeatherDisplay:10.37,2013-02-25 13:26:00,
2013-02-25 05:31:00,45.1,42.3,30.23,SW,216,0.2,1.0,90,0.00,OVC,,0.00,0.0,WeatherDisplay:10.37,2013-02-25 13:31:00,
2013-02-25 05:36:00,45.1,42.6,30.24,SW,216,0.0,0.0,91,0.00,OVC,,0.00,0.0,WeatherDisplay:10.37,2013-02-25 13:36:00,
2013-02-25 05:41:00,45.2,42.7,30.24,SW,216,0.0,0.0,91,0.00,OVC,,0.00,0.0,WeatherDisplay:10.37,2013-02-25 13:41:00,
2013-02-25 05:46:00,45.2,42.7,30.25,SW,216,0.4,1.1,91,0.00,OVC,,0.00,0.0,WeatherDisplay:10.37,2013-02-25 13:46:00,
2013-02-25 05:51:00,45.3,42.8,30.24,SW,216,1.2,2.3,91,0.00,OVC,,0.00,0.0,WeatherDisplay:10.37,2013-02-25 13:51:00,
2013-02-25 05:56:00,45.4,42.9,30.23,SW,216,2.4,3.5,91,0.00,OVC,,0.00,0.0,WeatherDisplay:10.37,2013-02-25 13:56:00,
2013-02-25 06:01:00,45.6,43.1,30.23,SW,216,0.0,1.1,91,0.00,OVC,,0.00,0.0,WeatherDisplay:10.37,2013-02-25 14:01:00,
2013-02-25 06:06:00,45.7,43.2,30.23,SW,216,1.0,3.5,91,0.00,OVC,,0.00,0.0,WeatherDisplay:10.37,2013-02-25 14:06:00,
2013-02-25 06:12:00,45.8,43.3,30.24,SW,216,1.9,3.5,91,0.00,OVC,,0.00,0.0,WeatherDisplay:10.37,2013-02-25 14:12:00,
2013-02-25 06:18:00,45.9,43.4,30.24,SW,224,2.6,3.5,91,0.00,OVC,,0.00,0.0,WeatherDisplay:10.37,2013-02-25 14:18:00,
2013-02-25 06:23:00,46.1,43.6,30.24,WSW,246,2.8,5.8,91,0.00,OVC,,0.00,0.0,WeatherDisplay:10.37,2013-02-25 14:23:00,
2013-02-25 06:28:00,46.1,43.6,30.24,WSW,241,1.5,4.6,91,0.00,OVC,,0.00,0.0,WeatherDisplay:10.37,2013-02-25 14:28:00,
2013-02-25 06:33:00,46.2,43.7,30.25,SW,236,1.2,3.5,91,0.00,OVC,,0.00,0.0,WeatherDisplay:10.37,2013-02-25 14:33:00,
2013-02-25 06:38:00,46.3,43.8,30.25,WSW,237,0.2,3.5,91,0.00,OVC,,0.00,0.0,WeatherDisplay:10.37,2013-02-25 14:38:00,
2013-02-25 06:43:00,46.3,43.8,30.25,WSW,237,0.0,0.0,91,0.00,OVC,,0.00,0.0,WeatherDisplay:10.37,2013-02-25 14:43:00,
2013-02-25 06:48:00,46.3,43.8,30.25,WSW,237,0.6,2.3,91,0.00,OVC,,0.00,5.0,WeatherDisplay:10.37,2013-02-25 14:48:00,
2013-02-25 06:53:00,46.3,43.5,30.25,WSW,237,0.0,0.0,90,0.00,OVC,,0.00,9.0,WeatherDisplay:10.37,2013-02-25 14:53:00,
2013-02-25 06:58:00,46.3,43.5,30.25,WSW,237,0.0,1.1,90,0.00,OVC,,0.00,14.0,WeatherDisplay:10.37,2013-02-25 14:58:00,
2013-02-25 07:03:00,46.2,43.4,30.25,WSW,237,0.0,0.0,90,0.00,OVC,,0.00,25.0,WeatherDisplay:10.37,2013-02-25 15:03:00,
2013-02-25 07:08:00,46.2,43.4,30.25,WSW,237,0.0,0.0,90,0.00,OVC,,0.00,35.0,WeatherDisplay:10.37,2013-02-25 15:08:00,
2013-02-25 07:13:00,46.3,43.8,30.25,WSW,237,0.0,0.0,91,0.00,OVC,,0.00,49.0,WeatherDisplay:10.37,2013-02-25 15:13:00,
2013-02-25 07:18:00,46.4,43.9,30.26,WSW,237,0.0,0.0,91,0.00,OVC,,0.00,63.0,WeatherDisplay:10.37,2013-02-25 15:18:00,
2013-02-25 07:23:00,46.7,44.2,30.26,WSW,237,0.0,0.0,91,0.00,OVC,,0.00,81.0,WeatherDisplay:10.37,2013-02-25 15:23:00,
2013-02-25 07:28:00,47.2,45.0,30.26,WSW,237,0.0,0.0,92,0.00,OVC,,0.00,95.0,WeatherDisplay:10.37,2013-02-25 15:28:00,
2013-02-25 07:33:00,47.8,45.6,30.25,WSW,237,0.0,0.0,92,0.00,OVC,,0.00,113.0,WeatherDisplay:10.37,2013-02-25 15:33:00,
2013-02-25 07:38:00,48.5,46.3,30.25,WSW,237,0.0,0.0,92,0.00,CLR,,0.00,127.0,WeatherDisplay:10.37,2013-02-25 15:38:00,
2013-02-25 07:43:00,49.5,47.6,30.25,WSW,237,0.0,0.0,93,0.00,CLR,,0.00,142.0,WeatherDisplay:10.37,2013-02-25 15:43:00,
2013-02-25 07:48:00,50.5,48.0,30.25,WSW,237,0.0,0.0,91,0.00,CLR,,0.00,163.0,WeatherDisplay:10.37,2013-02-25 15:48:00,
2013-02-25 07:53:00,51.2,48.1,30.25,WSW,237,0.0,0.0,89,0.00,CLR,,0.00,172.0,WeatherDisplay:10.37,2013-02-25 15:53:00,
2013-02-25 07:58:00,51.6,47.9,30.25,WSW,237,0.0,0.0,87,0.00,CLR,,0.00,202.0,WeatherDisplay:10.37,2013-02-25 15:58:00,
2013-02-25 08:03:00,52.3,48.2,30.25,WSW,237,0.0,0.0,86,0.00,CLR,,0.00,221.0,WeatherDisplay:10.37,2013-02-25 16:03:00,
2013-02-25 08:08:00,52.4,47.7,30.25,WSW,237,0.0,0.0,84,0.00,CLR,,0.00,241.0,WeatherDisplay:10.37,2013-02-25 16:08:00,
2013-02-25 08:13:00,52.8,48.1,30.25,WSW,237,1.0,3.5,84,0.00,CLR,,0.00,264.0,WeatherDisplay:10.37,2013-02-25 16:13:00,
2013-02-25 08:18:00,53.0,47.3,30.25,WSW,237,0.1,1.1,81,0.00,CLR,,0.00,251.0,WeatherDisplay:10.37,2013-02-25 16:18:00,
2013-02-25 08:23:00,53.2,47.5,30.25,WSW,237,0.3,1.1,81,0.00,CLR,,0.00,290.0,WeatherDisplay:10.37,2013-02-25 16:23:00,
2013-02-25 08:28:00,53.0,46.3,30.25,WSW,242,0.3,1.1,78,0.00,CLR,,0.00,260.0,WeatherDisplay:10.37,2013-02-25 16:28:00,
2013-02-25 08:33:00,52.9,46.6,30.25,SW,234,2.2,3.5,79,0.00,CLR,,0.00,320.0,WeatherDisplay:10.37,2013-02-25 16:33:00,
2013-02-25 08:38:00,52.8,46.5,30.25,ESE,123,0.5,2.3,79,0.00,CLR,,0.00,338.0,WeatherDisplay:10.37,2013-02-25 16:38:00,
2013-02-25 08:43:00,52.7,46.4,30.25,ESE,123,1.3,3.5,79,0.00,CLR,,0.00,345.0,WeatherDisplay:10.37,2013-02-25 16:43:00,
2013-02-25 08:48:00,52.5,45.8,30.25,SE,124,0.3,2.3,78,0.00,CLR,,0.00,343.0,WeatherDisplay:10.37,2013-02-25 16:48:00,
2013-02-25 08:53:00,52.4,46.4,30.25,SE,124,1.0,3.5,80,0.00,CLR,,0.00,355.0,WeatherDisplay:10.37,2013-02-25 16:53:00,
2013-02-25 08:58:00,52.7,46.4,30.25,SE,124,0.0,0.0,79,0.00,CLR,,0.00,376.0,WeatherDisplay:10.37,2013-02-25 16:58:00,
2013-02-25 09:03:00,52.9,46.6,30.25,SE,124,0.0,0.0,79,0.00,CLR,,0.00,392.0,WeatherDisplay:10.37,2013-02-25 17:03:00,
2013-02-25 09:08:00,53.4,47.0,30.25,SE,124,0.1,1.1,79,0.00,CLR,,0.00,406.0,WeatherDisplay:10.37,2013-02-25 17:08:00,
2013-02-25 09:13:00,54.1,47.4,30.25,SE,127,1.0,3.5,78,0.00,CLR,,0.00,417.0,WeatherDisplay:10.37,2013-02-25 17:13:00,
2013-02-25 09:18:00,54.8,47.7,30.24,SE,127,0.0,0.0,77,0.00,CLR,,0.00,439.0,WeatherDisplay:10.37,2013-02-25 17:18:00,
2013-02-25 09:23:00,55.0,46.9,30.24,SE,127,0.2,2.3,74,0.00,CLR,,0.00,450.0,WeatherDisplay:10.37,2013-02-25 17:23:00,
2013-02-25 09:28:00,55.4,46.9,30.24,SE,139,0.3,1.1,73,0.00,CLR,,0.00,473.0,WeatherDisplay:10.37,2013-02-25 17:28:00,
2013-02-25 09:33:00,55.9,46.6,30.24,SSE,152,1.0,3.5,71,0.00,CLR,,0.00,482.0,WeatherDisplay:10.37,2013-02-25 17:33:00,
2013-02-25 09:39:00,56.1,46.4,30.24,SSE,163,2.5,3.5,70,0.00,CLR,,0.00,501.0,WeatherDisplay:10.37,2013-02-25 17:39:00,
2013-02-25 09:44:00,56.3,46.6,30.24,SSE,162,0.7,3.0,70,0.00,CLR,,0.00,506.0,WeatherDisplay:10.37,2013-02-25 17:44:00,
2013-02-25 09:49:00,56.6,46.5,30.24,SSE,163,1.0,2.0,69,0.00,CLR,,0.00,517.0,WeatherDisplay:10.37,2013-02-25 17:49:00,
2013-02-25 09:54:00,56.9,47.2,30.23,SSE,154,1.2,3.5,70,0.00,CLR,,0.00,520.0,WeatherDisplay:10.37,2013-02-25 17:54:00,
2013-02-25 09:59:00,57.0,46.1,30.23,SSE,154,2.4,3.5,67,0.00,CLR,,0.00,534.0,WeatherDisplay:10.37,2013-02-25 17:59:00,
2013-02-25 10:04:00,56.9,46.8,30.23,SSE,158,1.8,3.5,69,0.00,CLR,,0.00,554.0,WeatherDisplay:10.37,2013-02-25 18:04:00,
2013-02-25 10:09:00,57.2,47.1,30.24,SSE,158,2.6,3.5,69,0.00,CLR,,0.00,552.0,WeatherDisplay:10.37,2013-02-25 18:09:00,
2013-02-25 10:14:00,57.0,46.5,30.24,SE,136,1.8,3.5,68,0.00,CLR,,0.00,552.0,WeatherDisplay:10.37,2013-02-25 18:14:00,
2013-02-25 10:19:00,57.0,46.9,30.24,SSE,149,1.5,2.3,69,0.00,CLR,,0.00,580.0,WeatherDisplay:10.37,2013-02-25 18:19:00,
2013-02-25 10:24:00,57.2,46.7,30.24,SSE,150,1.5,4.6,68,0.00,CLR,,0.00,589.0,WeatherDisplay:10.37,2013-02-25 18:24:00,
2013-02-25 10:29:00,57.4,46.9,30.24,East,94,3.4,4.0,68,0.00,CLR,,0.00,585.0,WeatherDisplay:10.37,2013-02-25 18:29:00,
2013-02-25 10:34:00,56.6,46.5,30.24,SE,127,1.4,3.0,69,0.00,CLR,,0.00,598.0,WeatherDisplay:10.37,2013-02-25 18:34:00,
2013-02-25 10:39:00,56.4,46.7,30.24,SE,127,1.8,3.5,70,0.00,CLR,,0.00,603.0,WeatherDisplay:10.37,2013-02-25 18:39:00,
2013-02-25 10:44:00,56.3,46.6,30.24,NNW,339,2.2,6.0,70,0.00,CLR,,0.00,610.0,WeatherDisplay:10.37,2013-02-25 18:44:00,
2013-02-25 10:49:00,55.9,46.3,30.24,NNW,331,1.9,3.5,70,0.00,CLR,,0.00,615.0,WeatherDisplay:10.37,2013-02-25 18:49:00,
2013-02-25 10:54:00,55.5,43.1,30.24,West,270,4.2,10.4,63,0.00,CLR,,0.00,626.0,WeatherDisplay:10.37,2013-02-25 18:54:00,
2013-02-25 10:59:00,55.0,41.4,30.24,WNW,286,5.6,10.4,60,0.00,CLR,,0.00,643.0,WeatherDisplay:10.37,2013-02-25 18:59:00,
2013-02-25 11:04:00,54.8,41.2,30.24,WNW,289,3.2,9.2,60,0.00,CLR,,0.00,657.0,WeatherDisplay:10.37,2013-02-25 19:04:00,
2013-02-25 11:09:00,55.0,41.4,30.23,North,10,3.3,6.9,60,0.00,CLR,,0.00,659.0,WeatherDisplay:10.37,2013-02-25 19:09:00,
2013-02-25 11:14:00,55.5,43.5,30.23,WSW,253,6.5,8.1,64,0.00,CLR,,0.00,661.0,WeatherDisplay:10.37,2013-02-25 19:14:00,
2013-02-25 11:19:00,56.0,42.7,30.24,WSW,243,4.4,10.4,61,0.00,CLR,,0.00,668.0,WeatherDisplay:10.37,2013-02-25 19:19:00,
2013-02-25 11:24:00,56.3,43.0,30.23,SW,219,1.6,4.0,61,0.00,CLR,,0.00,675.0,WeatherDisplay:10.37,2013-02-25 19:24:00,
2013-02-25 11:29:00,56.8,43.9,30.23,SW,227,2.4,7.0,62,0.00,CLR,,0.00,677.0,WeatherDisplay:10.37,2013-02-25 19:29:00,
2013-02-25 11:34:00,57.5,44.1,30.23,SW,225,2.9,5.0,61,0.00,CLR,,0.00,680.0,WeatherDisplay:10.37,2013-02-25 19:34:00,
2013-02-25 11:39:00,58.0,44.2,30.23,WNW,297,3.5,10.4,60,0.00,CLR,,0.00,684.0,WeatherDisplay:10.37,2013-02-25 19:39:00,
2013-02-25 11:44:00,58.1,43.8,30.22,WNW,283,5.6,8.1,59,0.00,CLR,,0.00,687.0,WeatherDisplay:10.37,2013-02-25 19:44:00,
2013-02-25 11:49:00,57.4,43.2,30.22,NNW,332,2.1,4.6,59,0.00,CLR,,0.00,682.0,WeatherDisplay:10.37,2013-02-25 19:49:00,
2013-02-25 11:54:00,57.3,43.5,30.22,NNW,341,1.8,4.6,60,0.00,CLR,,0.00,691.0,WeatherDisplay:10.37,2013-02-25 19:54:00,
2013-02-25 11:59:00,57.4,43.6,30.22,NNW,341,3.7,4.6,60,0.00,CLR,,0.00,693.0,WeatherDisplay:10.37,2013-02-25 19:59:00,
2013-02-25 12:04:00,57.3,44.0,30.22,NNW,348,3.1,3.5,61,0.00,CLR,,0.00,689.0,WeatherDisplay:10.37,2013-02-25 20:04:00,
2013-02-25 12:09:00,57.3,44.4,30.22,West,266,0.3,5.8,62,0.00,CLR,,0.00,696.0,WeatherDisplay:10.37,2013-02-25 20:09:00,
2013-02-25 12:14:00,57.4,44.5,30.22,WSW,253,6.1,10.4,62,0.00,CLR,,0.00,687.0,WeatherDisplay:10.37,2013-02-25 20:14:00,
2013-02-25 12:19:00,57.5,45.8,30.22,North,10,3.9,8.1,65,0.00,CLR,,0.00,687.0,WeatherDisplay:10.37,2013-02-25 20:19:00,
2013-02-25 12:24:00,57.7,46.0,30.22,West,277,6.4,11.5,65,0.00,CLR,,0.00,691.0,WeatherDisplay:10.37,2013-02-25 20:24:00,
2013-02-25 12:29:00,57.4,46.1,30.22,West,273,4.3,6.9,66,0.00,CLR,,0.00,682.0,WeatherDisplay:10.37,2013-02-25 20:29:00,
2013-02-25 12:34:00,57.4,46.9,30.21,NNW,329,5.6,10.4,68,0.00,CLR,,0.00,677.0,WeatherDisplay:10.37,2013-02-25 20:34:00,
2013-02-25 12:39:00,57.5,46.6,30.21,West,277,5.4,10.4,67,0.00,CLR,,0.00,666.0,WeatherDisplay:10.37,2013-02-25 20:39:00,
2013-02-25 12:44:00,57.4,46.5,30.21,WNW,284,5.4,9.2,67,0.00,CLR,,0.00,635.0,WeatherDisplay:10.37,2013-02-25 20:44:00,
2013-02-25 12:49:00,57.1,46.2,30.20,WNW,286,2.6,5.0,67,0.00,CLR,,0.00,670.0,WeatherDisplay:10.37,2013-02-25 20:49:00,
2013-02-25 12:54:00,57.3,46.0,30.20,WNW,291,2.4,5.8,66,0.00,CLR,,0.00,670.0,WeatherDisplay:10.37,2013-02-25 20:54:00,
2013-02-25 12:59:00,57.7,46.0,30.20,WSW,255,5.1,6.9,65,0.00,CLR,,0.00,666.0,WeatherDisplay:10.37,2013-02-25 20:59:00,
2013-02-25 13:04:00,57.8,46.1,30.20,West,271,5.1,9.2,65,0.00,CLR,,0.00,659.0,WeatherDisplay:10.37,2013-02-25 21:04:00,
2013-02-25 13:09:00,57.9,46.6,30.20,WNW,287,6.8,10.4,66,0.00,CLR,,0.00,663.0,WeatherDisplay:10.37,2013-02-25 21:09:00,
2013-02-25 13:14:00,57.9,47.0,30.20,North,10,6.9,11.5,67,0.00,CLR,,0.00,652.0,WeatherDisplay:10.37,2013-02-25 21:14:00,
2013-02-25 13:19:00,57.6,46.7,30.20,WNW,293,4.5,5.8,67,0.00,CLR,,0.00,654.0,WeatherDisplay:10.37,2013-02-25 21:19:00,
2013-02-25 13:24:00,57.8,47.3,30.20,NW,309,4.6,9.2,68,0.00,CLR,,0.00,652.0,WeatherDisplay:10.37,2013-02-25 21:24:00,
2013-02-25 13:29:00,58.2,46.5,30.20,West,271,4.1,4.6,65,0.00,CLR,,0.00,652.0,WeatherDisplay:10.37,2013-02-25 21:29:00,
2013-02-25 13:34:00,58.4,47.5,30.20,WSW,240,3.4,6.9,67,0.00,CLR,,0.00,619.0,WeatherDisplay:10.37,2013-02-25 21:34:00,
2013-02-25 13:39:00,58.7,47.4,30.20,West,278,7.2,11.0,66,0.00,CLR,,0.00,610.0,WeatherDisplay:10.37,2013-02-25 21:39:00,
2013-02-25 13:44:00,58.1,47.2,30.20,West,271,6.9,9.2,67,0.00,CLR,,0.00,621.0,WeatherDisplay:10.37,2013-02-25 21:44:00,
2013-02-25 13:49:00,58.0,47.5,30.20,West,279,5.8,7.0,68,0.00,CLR,,0.00,615.0,WeatherDisplay:10.37,2013-02-25 21:49:00,
2013-02-25 13:54:00,58.2,46.9,30.20,West,261,5.7,11.5,66,0.00,CLR,,0.00,603.0,WeatherDisplay:10.37,2013-02-25 21:54:00,
2013-02-25 13:59:00,58.4,47.5,30.20,West,275,4.7,5.8,67,0.00,CLR,,0.00,592.0,WeatherDisplay:10.37,2013-02-25 21:59:00,
2013-02-25 14:04:00,58.3,47.0,30.20,NNW,345,7.1,11.5,66,0.00,CLR,,0.00,582.0,WeatherDisplay:10.37,2013-02-25 22:04:00,
2013-02-25 14:09:00,58.5,47.6,30.20,WNW,294,4.4,10.4,67,0.00,CLR,,0.00,578.0,WeatherDisplay:10.37,2013-02-25 22:09:00,
2013-02-25 14:14:00,58.5,47.2,30.20,WNW,282,7.0,11.5,66,0.00,CLR,,0.00,571.0,WeatherDisplay:10.37,2013-02-25 22:14:00,
2013-02-25 14:19:00,58.5,47.2,30.20,WNW,284,8.2,11.5,66,0.00,CLR,,0.00,561.0,WeatherDisplay:10.37,2013-02-25 22:19:00,
2013-02-25 14:24:00,58.0,46.7,30.20,NNW,335,5.5,6.9,66,0.00,CLR,,0.00,554.0,WeatherDisplay:10.37,2013-02-25 22:24:00,
2013-02-25 14:29:00,58.0,47.1,30.19,West,273,4.6,8.1,67,0.00,CLR,,0.00,545.0,WeatherDisplay:10.37,2013-02-25 22:29:00,
2013-02-25 14:34:00,58.5,47.2,30.19,WNW,287,5.7,10.4,66,0.00,CLR,,0.00,524.0,WeatherDisplay:10.37,2013-02-25 22:34:00,
2013-02-25 14:39:00,58.7,47.4,30.19,West,269,4.0,8.1,66,0.00,CLR,,0.00,519.0,WeatherDisplay:10.37,2013-02-25 22:39:00,
2013-02-25 14:44:00,58.9,47.2,30.19,NW,306,7.2,11.5,65,0.00,FEW,,0.00,506.0,WeatherDisplay:10.37,2013-02-25 22:44:00,
2013-02-25 14:49:00,59.0,47.2,30.19,West,277,3.1,6.9,65,0.00,FEW,,0.00,492.0,WeatherDisplay:10.37,2013-02-25 22:49:00,
2013-02-25 14:54:00,59.1,46.9,30.18,WNW,302,3.8,10.4,64,0.00,FEW,,0.00,482.0,WeatherDisplay:10.37,2013-02-25 22:54:00,
2013-02-25 14:59:00,59.4,47.2,30.18,WNW,291,1.7,6.9,64,0.00,FEW,,0.00,468.0,WeatherDisplay:10.37,2013-02-25 22:59:00,
2013-02-25 15:04:00,59.8,47.2,30.18,West,279,5.4,11.5,63,0.00,FEW,,0.00,454.0,WeatherDisplay:10.37,2013-02-25 23:04:00,
2013-02-25 15:09:00,59.7,47.5,30.18,WNW,287,2.8,9.2,64,0.00,FEW,,0.00,443.0,WeatherDisplay:10.37,2013-02-25 23:09:00,
2013-02-25 15:14:00,59.3,47.1,30.18,West,266,8.4,11.5,64,0.00,FEW,,0.00,427.0,WeatherDisplay:10.37,2013-02-25 23:14:00,
2013-02-25 15:19:00,58.6,46.9,30.18,West,281,8.3,11.5,65,0.00,FEW,,0.00,413.0,WeatherDisplay:10.37,2013-02-25 23:19:00,
2013-02-25 15:24:00,58.1,47.2,30.18,North,10,5.4,9.2,67,0.00,FEW,,0.00,399.0,WeatherDisplay:10.37,2013-02-25 23:24:00,
2013-02-25 15:29:00,58.0,47.1,30.18,West,270,8.2,10.4,67,0.00,FEW,,0.00,387.0,WeatherDisplay:10.37,2013-02-25 23:29:00,
2013-02-25 15:34:00,57.9,47.4,30.18,WNW,297,2.2,5.8,68,0.00,SCT,,0.00,378.0,WeatherDisplay:10.37,2013-02-25 23:34:00,
2013-02-25 15:40:00,58.3,47.4,30.18,WNW,291,4.8,9.2,67,0.00,SCT,,0.00,362.0,WeatherDisplay:10.37,2013-02-25 23:40:00,
2013-02-25 15:45:00,58.3,47.4,30.18,WNW,298,5.4,5.8,67,0.00,SCT,,0.00,346.0,WeatherDisplay:10.37,2013-02-25 23:45:00,
2013-02-25 15:50:00,58.4,47.1,30.18,NNW,330,2.7,5.8,66,0.00,SCT,,0.00,332.0,WeatherDisplay:10.37,2013-02-25 23:50:00,
2013-02-25 15:55:00,58.7,47.0,30.17,WNW,302,5.1,12.7,65,0.00,SCT,,0.00,316.0,WeatherDisplay:10.37,2013-02-25 23:55:00,
2013-02-25 16:00:00,58.3,46.6,30.17,WSW,255,8.9,11.5,65,0.00,SCT,,0.00,301.0,WeatherDisplay:10.37,2013-02-26 00:00:00,
2013-02-25 16:05:00,57.7,46.4,30.17,NE,39,6.9,11.5,66,0.00,SCT,,0.00,288.0,WeatherDisplay:10.37,2013-02-26 00:05:00,
2013-02-25 16:10:00,57.7,46.4,30.17,WNW,296,2.6,4.6,66,0.00,SCT,,0.00,272.0,WeatherDisplay:10.37,2013-02-26 00:10:00,
2013-02-25 16:15:00,57.7,46.4,30.17,North,10,3.4,7.0,66,0.00,SCT,,0.00,260.0,WeatherDisplay:10.37,2013-02-26 00:15:00,
2013-02-25 16:20:00,57.7,46.4,30.17,West,268,7.4,12.0,66,0.00,SCT,,0.00,246.0,WeatherDisplay:10.37,2013-02-26 00:20:00,
2013-02-25 16:25:00,57.5,46.2,30.17,West,277,8.7,11.5,66,0.00,SCT,,0.00,230.0,WeatherDisplay:10.37,2013-02-26 00:25:00,
2013-02-25 16:30:00,57.1,45.8,30.16,WNW,291,6.3,12.7,66,0.00,SCT,,0.00,216.0,WeatherDisplay:10.37,2013-02-26 00:30:00,
2013-02-25 16:35:00,56.8,45.6,30.16,WNW,291,9.0,11.5,66,0.00,SCT,,0.00,200.0,WeatherDisplay:10.37,2013-02-26 00:35:00,
2013-02-25 16:40:00,56.8,45.6,30.16,West,264,4.3,10.4,66,0.00,SCT,,0.00,183.0,WeatherDisplay:10.37,2013-02-26 00:40:00,
2013-02-25 16:45:00,56.9,45.3,30.16,West,280,8.3,13.8,65,0.00,SCT,,0.00,172.0,WeatherDisplay:10.37,2013-02-26 00:45:00,
2013-02-25 16:50:00,56.6,45.0,30.16,West,270,7.2,11.5,65,0.00,SCT,,0.00,158.0,WeatherDisplay:10.37,2013-02-26 00:50:00,
2013-02-25 16:55:00,56.4,45.2,30.16,WNW,296,8.9,10.4,66,0.00,SCT,,0.00,144.0,WeatherDisplay:10.37,2013-02-26 00:55:00,
2013-02-25 17:00:00,56.2,45.0,30.16,WNW,283,6.6,11.5,66,0.00,SCT,,0.00,134.0,WeatherDisplay:10.37,2013-02-26 01:00:00,
2013-02-25 17:05:00,56.2,45.0,30.16,WSW,246,6.6,11.5,66,0.00,BKN,,0.00,111.0,WeatherDisplay:10.37,2013-02-26 01:05:00,
2013-02-25 17:10:00,56.3,45.1,30.16,WSW,239,7.5,11.5,66,0.00,BKN,,0.00,93.0,WeatherDisplay:10.37,2013-02-26 01:10:00,
2013-02-25 17:15:00,56.5,45.3,30.16,WSW,240,2.3,8.0,66,0.00,BKN,,0.00,79.0,WeatherDisplay:10.37,2013-02-26 01:15:00,
2013-02-25 17:20:00,56.7,45.5,30.16,West,281,2.1,3.5,66,0.00,BKN,,0.00,65.0,WeatherDisplay:10.37,2013-02-26 01:20:00,
2013-02-25 17:25:00,56.8,45.2,30.16,WNW,300,0.8,2.3,65,0.00,BKN,,0.00,51.0,WeatherDisplay:10.37,2013-02-26 01:25:00,
2013-02-25 17:30:00,57.0,45.3,30.16,West,270,2.0,7.0,65,0.00,BKN,,0.00,39.0,WeatherDisplay:10.37,2013-02-26 01:30:00,
2013-02-25 17:35:00,56.8,44.7,30.16,WNW,288,3.5,6.0,64,0.00,BKN,,0.00,30.0,WeatherDisplay:10.37,2013-02-26 01:35:00,
2013-02-25 17:40:00,56.3,44.7,30.16,WNW,294,0.9,2.3,65,0.00,BKN,,0.00,18.0,WeatherDisplay:10.37,2013-02-26 01:40:00,
2013-02-25 17:45:00,55.8,44.2,30.16,West,273,2.4,6.9,65,0.00,OVC,,0.00,14.0,WeatherDisplay:10.37,2013-02-26 01:45:00,
2013-02-25 17:50:00,55.4,43.9,30.16,West,276,2.0,12.0,65,0.00,OVC,,0.00,11.0,WeatherDisplay:10.37,2013-02-26 01:50:00,
2013-02-25 17:55:00,55.1,43.9,30.16,West,274,5.0,10.0,66,0.00,OVC,,0.00,7.0,WeatherDisplay:10.37,2013-02-26 01:55:00,
2013-02-25 18:00:00,54.8,43.7,30.16,WSW,254,5.9,12.7,66,0.00,OVC,,0.00,5.0,WeatherDisplay:10.37,2013-02-26 02:00:00,
2013-02-25 18:05:00,54.4,43.3,30.16,WSW,247,1.6,6.9,66,0.00,OVC,,0.00,0.0,WeatherDisplay:10.37,2013-02-26 02:05:00,
2013-02-25 18:10:00,54.2,43.1,30.16,West,278,3.5,5.8,66,0.00,OVC,,0.00,0.0,WeatherDisplay:10.37,2013-02-26 02:10:00,
2013-02-25 18:15:00,54.0,42.9,30.16,WNW,284,4.4,9.2,66,0.00,OVC,,0.00,0.0,WeatherDisplay:10.37,2013-02-26 02:15:00,
2013-02-25 18:20:00,53.9,42.8,30.16,WSW,243,5.2,11.5,66,0.00,OVC,,0.00,0.0,WeatherDisplay:10.37,2013-02-26 02:20:00,
2013-02-25 18:25:00,53.6,42.5,30.17,WNW,283,8.0,12.0,66,0.00,OVC,,0.00,0.0,WeatherDisplay:10.37,2013-02-26 02:25:00,
2013-02-25 18:30:00,53.2,42.5,30.17,WNW,286,7.4,9.2,67,0.00,OVC,,0.00,0.0,WeatherDisplay:10.37,2013-02-26 02:30:00,
2013-02-25 18:35:00,52.8,42.5,30.17,North,10,5.5,11.5,68,0.00,OVC,,0.00,0.0,WeatherDisplay:10.37,2013-02-26 02:35:00,
2013-02-25 18:40:00,52.7,42.4,30.17,NW,312,1.8,5.8,68,0.00,OVC,,0.00,0.0,WeatherDisplay:10.37,2013-02-26 02:40:00,
2013-02-25 18:45:00,52.6,41.9,30.17,WSW,251,5.0,10.0,67,0.00,OVC,,0.00,0.0,WeatherDisplay:10.37,2013-02-26 02:45:00,
2013-02-25 18:50:00,52.6,41.9,30.17,West,262,3.0,10.0,67,0.00,OVC,,0.00,0.0,WeatherDisplay:10.37,2013-02-26 02:50:00,
2013-02-25 18:55:00,52.6,41.9,30.17,SW,230,2.0,3.5,67,0.00,OVC,,0.00,0.0,WeatherDisplay:10.37,2013-02-26 02:55:00,
2013-02-25 19:00:00,52.5,41.5,30.17,WSW,255,1.3,3.5,66,0.00,OVC,,0.00,0.0,WeatherDisplay:10.37,2013-02-26 03:00:00,
2013-02-25 19:05:00,52.5,42.2,30.17,SW,232,3.1,6.0,68,0.00,OVC,,0.00,0.0,WeatherDisplay:10.37,2013-02-26 03:05:00,
2013-02-25 19:10:00,52.4,42.1,30.18,WSW,238,1.0,6.0,68,0.00,OVC,,0.00,0.0,WeatherDisplay:10.37,2013-02-26 03:10:00,
2013-02-25 19:15:00,52.2,42.3,30.18,SW,235,2.0,3.5,69,0.00,OVC,,0.00,0.0,WeatherDisplay:10.37,2013-02-26 03:15:00,
2013-02-25 19:20:00,52.1,42.2,30.18,SW,235,0.0,3.0,69,0.00,OVC,,0.00,0.0,WeatherDisplay:10.37,2013-02-26 03:20:00,
2013-02-25 19:25:00,52.0,42.1,30.18,SW,235,0.0,2.0,69,0.00,OVC,,0.00,0.0,WeatherDisplay:10.37,2013-02-26 03:25:00,
2013-02-25 19:30:00,51.9,42.0,30.18,SW,235,0.2,1.1,69,0.00,OVC,,0.00,0.0,WeatherDisplay:10.37,2013-02-26 03:30:00,
2013-02-25 19:35:00,51.8,41.9,30.18,SW,235,1.0,2.0,69,0.00,OVC,,0.00,0.0,WeatherDisplay:10.37,2013-02-26 03:35:00,
2013-02-25 19:40:00,51.7,41.9,30.18,SW,235,0.0,2.0,69,0.00,OVC,,0.00,0.0,WeatherDisplay:10.37,2013-02-26 03:40:00,
2013-02-25 19:45:00,51.5,42.0,30.18,SW,235,0.9,2.3,70,0.00,OVC,,0.00,0.0,WeatherDisplay:10.37,2013-02-26 03:45:00,
2013-02-25 19:50:00,51.5,42.0,30.18,SW,235,0.0,0.0,70,0.00,OVC,,0.00,0.0,WeatherDisplay:10.37,2013-02-26 03:50:00,
2013-02-25 19:55:00,51.4,41.9,30.18,SW,235,0.3,2.3,70,0.00,OVC,,0.00,0.0,WeatherDisplay:10.37,2013-02-26 03:55:00,
2013-02-25 20:00:00,51.3,42.6,30.17,SW,235,3.2,4.6,72,0.00,OVC,,0.00,0.0,WeatherDisplay:10.37,2013-02-26 04:00:00,
2013-02-25 20:05:00,51.2,42.5,30.18,SW,235,0.0,5.0,72,0.00,OVC,,0.00,0.0,WeatherDisplay:10.37,2013-02-26 04:05:00,
2013-02-25 20:10:00,51.2,42.5,30.17,SW,235,2.0,3.5,72,0.00,OVC,,0.00,0.0,WeatherDisplay:10.37,2013-02-26 04:10:00,
2013-02-25 20:15:00,51.0,42.6,30.18,SW,235,0.0,5.0,73,0.00,OVC,,0.00,0.0,WeatherDisplay:10.37,2013-02-26 04:15:00,
2013-02-25 20:20:00,50.9,42.6,30.18,SW,235,1.4,3.5,73,0.00,OVC,,0.00,0.0,WeatherDisplay:10.37,2013-02-26 04:20:00,
2013-02-25 20:25:00,50.8,42.5,30.18,SW,235,2.7,3.5,73,0.00,OVC,,0.00,0.0,WeatherDisplay:10.37,2013-02-26 04:25:00,
2013-02-25 20:30:00,50.7,42.4,30.18,SW,235,1.0,3.0,73,0.00,OVC,,0.00,0.0,WeatherDisplay:10.37,2013-02-26 04:30:00,
2013-02-25 20:35:00,50.6,42.3,30.18,SW,235,2.0,5.0,73,0.00,OVC,,0.00,0.0,WeatherDisplay:10.37,2013-02-26 04:35:00,
2013-02-25 20:40:00,50.6,42.6,30.18,SW,235,1.0,3.0,74,0.00,OVC,,0.00,0.0,WeatherDisplay:10.37,2013-02-26 04:40:00,
2013-02-25 20:45:00,50.5,42.5,30.18,SW,235,2.0,5.0,74,0.00,OVC,,0.00,0.0,WeatherDisplay:10.37,2013-02-26 04:45:00,
2013-02-25 20:50:00,50.4,43.1,30.18,SW,235,1.0,5.0,76,0.00,OVC,,0.00,0.0,WeatherDisplay:10.37,2013-02-26 04:50:00,
2013-02-25 20:55:00,50.6,43.6,30.18,SW,235,2.0,4.0,77,0.00,OVC,,0.00,0.0,WeatherDisplay:10.37,2013-02-26 04:55:00,
2013-02-25 21:00:00,50.7,43.8,30.18,SW,233,2.5,4.0,77,0.00,OVC,,0.00,0.0,WeatherDisplay:10.37,2013-02-26 05:00:00,
2013-02-25 21:05:00,50.5,43.2,30.18,WSW,242,7.0,9.0,76,0.00,OVC,,0.00,0.0,WeatherDisplay:10.37,2013-02-26 05:05:00,
2013-02-25 21:10:00,50.3,43.0,30.18,WSW,256,6.2,6.9,76,0.00,OVC,,0.00,0.0,WeatherDisplay:10.37,2013-02-26 05:10:00,
2013-02-25 21:15:00,50.1,43.2,30.18,WSW,256,6.4,12.7,77,0.00,OVC,,0.00,0.0,WeatherDisplay:10.37,2013-02-26 05:15:00,
2013-02-25 21:20:00,50.0,43.4,30.18,WSW,253,5.0,7.0,78,0.00,OVC,,0.00,0.0,WeatherDisplay:10.37,2013-02-26 05:20:00,
2013-02-25 21:25:00,50.0,43.4,30.18,West,260,1.0,4.0,78,0.00,OVC,,0.00,0.0,WeatherDisplay:10.37,2013-02-26 05:25:00,
2013-02-25 21:30:00,49.9,43.3,30.18,West,263,0.0,0.0,78,0.00,OVC,,0.00,0.0,WeatherDisplay:10.37,2013-02-26 05:30:00,
2013-02-25 21:35:00,49.8,43.2,30.19,West,263,0.0,6.0,78,0.00,OVC,,0.00,0.0,WeatherDisplay:10.37,2013-02-26 05:35:00,
2013-02-25 21:40:00,49.6,43.0,30.19,WSW,240,1.2,3.5,78,0.00,OVC,,0.00,0.0,WeatherDisplay:10.37,2013-02-26 05:40:00,
2013-02-25 21:45:00,49.6,42.7,30.19,WSW,243,0.0,2.3,77,0.00,OVC,,0.00,0.0,WeatherDisplay:10.37,2013-02-26 05:45:00,
2013-02-25 21:50:00,49.7,42.8,30.19,WSW,243,0.0,0.0,77,0.00,OVC,,0.00,0.0,WeatherDisplay:10.37,2013-02-26 05:50:00,
2013-02-25 21:55:00,49.6,42.7,30.19,WSW,243,0.0,0.0,77,0.00,OVC,,0.00,0.0,WeatherDisplay:10.37,2013-02-26 05:55:00,
2013-02-25 22:00:00,49.6,42.7,30.19,WSW,243,0.0,3.0,77,0.00,OVC,,0.00,0.0,WeatherDisplay:10.37,2013-02-26 06:00:00,
2013-02-25 22:05:00,49.6,42.7,30.19,WSW,243,1.0,4.0,77,0.00,OVC,,0.00,0.0,WeatherDisplay:10.37,2013-02-26 06:05:00,
2013-02-25 22:10:00,49.7,42.8,30.19,WSW,243,0.5,3.5,77,0.00,OVC,,0.00,0.0,WeatherDisplay:10.37,2013-02-26 06:10:00,
2013-02-25 22:15:00,49.7,42.8,30.19,WSW,243,0.0,1.0,77,0.00,OVC,,0.00,0.0,WeatherDisplay:10.37,2013-02-26 06:15:00,
2013-02-25 22:20:00,49.6,42.7,30.19,WSW,243,0.0,0.0,77,0.00,OVC,,0.00,0.0,WeatherDisplay:10.37,2013-02-26 06:20:00,
2013-02-25 22:25:00,49.6,43.0,30.19,WSW,243,0.0,0.0,78,0.00,OVC,,0.00,0.0,WeatherDisplay:10.37,2013-02-26 06:25:00,
2013-02-25 22:30:00,49.5,42.9,30.19,WSW,243,0.0,0.0,78,0.00,OVC,,0.00,0.0,WeatherDisplay:10.37,2013-02-26 06:30:00,
2013-02-25 22:35:00,49.4,42.8,30.19,WSW,243,0.0,0.0,78,0.00,OVC,,0.00,0.0,WeatherDisplay:10.37,2013-02-26 06:35:00,
2013-02-25 22:40:00,49.2,42.6,30.19,WSW,243,0.1,2.3,78,0.00,OVC,,0.00,0.0,WeatherDisplay:10.37,2013-02-26 06:40:00,
2013-02-25 22:45:00,49.0,42.8,30.19,WSW,243,1.0,3.0,79,0.00,OVC,,0.00,0.0,WeatherDisplay:10.37,2013-02-26 06:45:00,
2013-02-25 22:50:00,48.9,42.7,30.19,WSW,243,0.0,1.0,79,0.00,OVC,,0.00,0.0,WeatherDisplay:10.37,2013-02-26 06:50:00,
2013-02-25 22:55:00,48.8,43.2,30.19,WSW,243,0.0,2.0,81,0.00,OVC,,0.00,0.0,WeatherDisplay:10.37,2013-02-26 06:55:00,
2013-02-25 23:00:00,48.8,43.2,30.19,WSW,243,1.0,4.0,81,0.00,OVC,,0.00,0.0,WeatherDisplay:10.37,2013-02-26 07:00:00,
2013-02-25 23:05:00,48.8,43.2,30.19,WSW,243,0.6,1.1,81,0.00,OVC,,0.00,0.0,WeatherDisplay:10.37,2013-02-26 07:05:00,
2013-02-25 23:10:00,48.7,42.8,30.19,WSW,243,0.2,0.0,80,0.00,OVC,,0.00,0.0,WeatherDisplay:10.37,2013-02-26 07:10:00,
2013-02-25 23:15:00,48.6,42.7,30.19,WSW,243,0.0,0.0,80,0.00,OVC,,0.00,0.0,WeatherDisplay:10.37,2013-02-26 07:15:00,
2013-02-25 23:20:00,48.5,42.6,30.19,WSW,243,0.0,1.1,80,0.00,OVC,,0.00,0.0,WeatherDisplay:10.37,2013-02-26 07:20:00,
2013-02-25 23:25:00,48.5,42.6,30.19,WSW,244,0.0,3.0,80,0.00,OVC,,0.00,0.0,WeatherDisplay:10.37,2013-02-26 07:25:00,
2013-02-25 23:30:00,48.5,42.6,30.19,WSW,244,0.2,1.1,80,0.00,OVC,,0.00,0.0,WeatherDisplay:10.37,2013-02-26 07:30:00,
2013-02-25 23:35:00,48.4,42.5,30.19,WSW,244,0.0,0.0,80,0.00,OVC,,0.00,0.0,WeatherDisplay:10.37,2013-02-26 07:35:00,
2013-02-25 23:40:00,48.4,42.8,30.19,WSW,245,1.7,2.3,81,0.00,OVC,,0.00,0.0,WeatherDisplay:10.37,2013-02-26 07:40:00,
2013-02-25 23:45:00,48.4,42.8,30.19,WSW,248,0.7,2.3,81,0.00,OVC,,0.00,0.0,WeatherDisplay:10.37,2013-02-26 07:45:00,
2013-02-25 23:50:00,48.4,42.8,30.19,WSW,248,0.0,1.0,81,0.00,OVC,,0.00,0.0,WeatherDisplay:10.37,2013-02-26 07:50:00,
2013-02-25 23:55:00,48.2,42.6,30.19,WSW,247,0.7,2.3,81,0.00,OVC,,0.00,0.0,WeatherDisplay:10.37,2013-02-26 07:55:00,